Time;durP1;ratioP1;P1;durP2;ratioP2;P2;SDS_P1;SDS_P2;PMS_P1;PMS_P2;Temp;Humidity;BMP_temperature;BMP_pressure;BME280_temperature;BME280_humidity;BME280_pressure;Samples;Min_cycle;Max_cycle;Signal;HPM_P1;HPM_P2
2023/08/26 00:00:42;;;;;;;11.27;4.57;;;;;;;;;;4987630;28;20128;-60
2023/08/26 00:03:11;;;;;;;9.38;4.82;;;;;;;;;;4987425;28;20097;-61
2023/08/26 00:05:39;;;;;;;9.18;4.40;;;;;;;;;;4992818;28;20069;-60
2023/08/26 00:08:09;;;;;;;7.20;4.32;;;;;;;;;;4988772;28;20483;-59
2023/08/26 00:10:39;;;;;;;8.90;4.80;;;;;;;;;;4994288;28;20104;-60
2023/08/26 00:13:07;;;;;;;8.05;4.47;;;;;;;;;;4990349;28;20598;-60
2023/08/26 00:15:35;;;;;;;6.05;4.00;;;;;;;;;;4980004;28;20561;-61
2023/08/26 00:18:08;;;;;;;11.85;4.72;;;;;;;;;;4986962;28;20043;-60
2023/08/26 00:20:38;;;;;;;8.20;4.88;;;;;;;;;;4991655;28;20393;-60
2023/08/26 00:23:06;;;;;;;8.45;4.53;;;;;;;;;;4987857;28;20189;-59
2023/08/26 00:25:34;;;;;;;9.45;5.32;;;;;;;;;;4989781;28;20050;-61
2023/08/26 00:28:05;;;;;;;8.40;4.30;;;;;;;;;;4989972;28;20056;-61
2023/08/26 00:30:33;;;;;;;8.15;4.53;;;;;;;;;;4985953;28;20235;-62
2023/08/26 00:33:01;;;;;;;7.82;4.10;;;;;;;;;;4993681;28;20104;-61
2023/08/26 00:35:30;;;;;;;8.10;4.70;;;;;;;;;;4988870;28;20476;-61
2023/08/26 00:37:58;;;;;;;8.25;4.60;;;;;;;;;;4987830;28;20050;-60
2023/08/26 00:40:27;;;;;;;9.40;4.47;;;;;;;;;;4990662;28;20050;-61
2023/08/26 00:42:55;;;;;;;8.35;4.38;;;;;;;;;;4993403;28;20085;-59
2023/08/26 00:45:25;;;;;;;6.97;4.75;;;;;;;;;;4995972;28;20085;-59
2023/08/26 00:47:53;;;;;;;8.10;4.32;;;;;;;;;;4986639;28;20054;-60
2023/08/26 00:50:22;;;;;;;8.20;4.00;;;;;;;;;;4989011;28;20046;-60
2023/08/26 00:52:52;;;;;;;7.32;4.53;;;;;;;;;;4986396;28;20050;-60
2023/08/26 00:55:21;;;;;;;9.57;4.60;;;;;;;;;;4997900;28;20042;-59
2023/08/26 00:57:50;;;;;;;6.88;4.25;;;;;;;;;;4990247;28;20081;-60
2023/08/26 01:00:18;;;;;;;6.70;4.43;;;;;;;;;;4996624;28;20042;-59
2023/08/26 01:02:48;;;;;;;7.88;4.40;;;;;;;;;;5005146;23;20151;-71
2023/08/26 01:05:17;;;;;;;8.15;4.05;;;;;;;;;;5004360;28;20112;-68
2023/08/26 01:07:46;;;;;;;8.43;4.80;;;;;;;;;;5004788;28;20373;-72
2023/08/26 01:10:14;;;;;;;6.80;4.30;;;;;;;;;;5006072;28;20104;-68
2023/08/26 01:12:47;;;;;;;8.52;4.95;;;;;;;;;;5006974;28;20097;-67
2023/08/26 01:15:16;;;;;;;7.13;4.45;;;;;;;;;;5010097;28;20116;-68
2023/08/26 01:17:44;;;;;;;7.93;4.40;;;;;;;;;;5004917;28;20084;-68
2023/08/26 01:20:15;;;;;;;11.15;5.20;;;;;;;;;;5006113;28;20414;-67
2023/08/26 01:22:43;;;;;;;7.90;4.30;;;;;;;;;;5006159;28;20392;-67
2023/08/26 01:25:13;;;;;;;7.88;4.20;;;;;;;;;;5007757;28;20050;-68
2023/08/26 01:27:42;;;;;;;13.52;4.40;;;;;;;;;;5007795;28;20070;-67
2023/08/26 01:30:12;;;;;;;8.40;4.25;;;;;;;;;;5005986;28;20606;-68
2023/08/26 01:32:43;;;;;;;7.88;4.15;;;;;;;;;;5005375;28;20050;-68
2023/08/26 01:35:13;;;;;;;11.00;4.13;;;;;;;;;;5006778;28;20054;-71
2023/08/26 01:37:42;;;;;;;13.05;4.63;;;;;;;;;;4998226;28;20046;-68
2023/08/26 01:40:11;;;;;;;8.95;5.50;;;;;;;;;;5004923;28;20058;-67
2023/08/26 01:42:42;;;;;;;8.82;4.57;;;;;;;;;;5004867;28;20099;-68
2023/08/26 01:45:11;;;;;;;7.60;4.38;;;;;;;;;;5006204;28;20076;-67
2023/08/26 01:47:40;;;;;;;7.82;3.85;;;;;;;;;;5006141;28;20149;-66
2023/08/26 01:50:09;;;;;;;8.40;4.22;;;;;;;;;;5006757;28;20054;-66
2023/08/26 01:52:37;;;;;;;7.82;4.78;;;;;;;;;;5016931;28;20112;-67
2023/08/26 01:55:06;;;;;;;9.57;4.40;;;;;;;;;;5024719;28;20045;-69
2023/08/26 01:57:34;;;;;;;9.80;5.07;;;;;;;;;;5023285;28;20687;-66
2023/08/26 02:00:05;;;;;;;9.38;4.63;;;;;;;;;;5024516;28;20103;-67
2023/08/26 02:02:33;;;;;;;12.38;5.30;;;;;;;;;;5026789;28;20054;-66
2023/08/26 02:05:01;;;;;;;11.32;4.60;;;;;;;;;;5025287;28;20473;-66
2023/08/26 02:07:30;;;;;;;9.05;4.85;;;;;;;;;;5027493;28;20099;-67
2023/08/26 02:09:58;;;;;;;12.35;4.60;;;;;;;;;;5024216;28;20188;-68
2023/08/26 02:12:26;;;;;;;10.65;4.55;;;;;;;;;;5025992;28;20100;-68
2023/08/26 02:14:55;;;;;;;12.25;4.97;;;;;;;;;;5023459;28;20506;-66
2023/08/26 02:17:24;;;;;;;11.38;5.68;;;;;;;;;;5028695;28;20218;-69
2023/08/26 02:19:53;;;;;;;14.60;5.28;;;;;;;;;;5026772;28;20115;-67
2023/08/26 02:22:21;;;;;;;5.93;4.32;;;;;;;;;;5030916;28;20049;-67
2023/08/26 02:24:49;;;;;;;10.48;4.57;;;;;;;;;;5028672;28;20045;-66
2023/08/26 02:27:18;;;;;;;11.80;4.85;;;;;;;;;;5030811;28;20050;-69
2023/08/26 02:29:46;;;;;;;8.40;4.18;;;;;;;;;;5026937;28;20061;-66
2023/08/26 02:32:14;;;;;;;6.97;4.10;;;;;;;;;;5022652;28;20692;-67
2023/08/26 02:34:44;;;;;;;9.00;4.28;;;;;;;;;;5028421;28;20045;-66
2023/08/26 02:37:13;;;;;;;8.40;4.10;;;;;;;;;;5027732;28;20046;-67
2023/08/26 02:39:41;;;;;;;8.07;4.47;;;;;;;;;;5021707;28;20571;-66
2023/08/26 02:42:09;;;;;;;7.57;4.00;;;;;;;;;;5030260;28;20095;-67
2023/08/26 02:44:38;;;;;;;9.93;4.70;;;;;;;;;;5027784;28;20050;-66
2023/08/26 02:47:06;;;;;;;6.95;4.45;;;;;;;;;;5030170;28;20041;-67
2023/08/26 02:49:34;;;;;;;9.20;4.20;;;;;;;;;;5029384;28;20493;-67
2023/08/26 02:52:04;;;;;;;10.60;4.78;;;;;;;;;;5028923;28;20099;-69
2023/08/26 02:54:32;;;;;;;9.07;4.57;;;;;;;;;;5029686;28;20077;-67
2023/08/26 02:57:02;;;;;;;7.45;3.25;;;;;;;;;;5028205;28;20414;-68
2023/08/26 02:59:31;;;;;;;8.25;3.63;;;;;;;;;;5028904;28;20041;-67
2023/08/26 03:01:59;;;;;;;8.38;3.42;;;;;;;;;;5027282;28;20046;-68
2023/08/26 03:04:28;;;;;;;5.40;3.17;;;;;;;;;;5029435;28;20490;-67
2023/08/26 03:06:57;;;;;;;7.45;3.22;;;;;;;;;;5027670;28;20049;-69
2023/08/26 03:09:28;;;;;;;7.15;3.30;;;;;;;;;;5028178;28;20049;-68
2023/08/26 03:11:56;;;;;;;8.65;3.05;;;;;;;;;;5026340;28;20038;-67
2023/08/26 03:14:24;;;;;;;9.18;3.00;;;;;;;;;;5029164;28;20560;-67
2023/08/26 03:16:53;;;;;;;5.60;2.97;;;;;;;;;;5021557;28;20728;-68
2023/08/26 03:19:21;;;;;;;6.22;2.78;;;;;;;;;;5030036;28;20115;-67
2023/08/26 03:21:50;;;;;;;6.55;2.63;;;;;;;;;;5024867;28;20045;-69
2023/08/26 03:24:18;;;;;;;4.22;2.53;;;;;;;;;;5028021;28;20069;-67
2023/08/26 03:26:48;;;;;;;5.57;2.88;;;;;;;;;;5025628;28;20091;-66
2023/08/26 03:29:16;;;;;;;7.22;2.58;;;;;;;;;;5018624;28;20041;-68
2023/08/26 03:31:45;;;;;;;6.65;3.03;;;;;;;;;;5026686;28;20057;-67
2023/08/26 03:34:14;;;;;;;5.70;2.78;;;;;;;;;;5026393;28;20147;-68
2023/08/26 03:36:42;;;;;;;8.00;3.10;;;;;;;;;;5027698;28;20082;-67
2023/08/26 03:39:10;;;;;;;6.20;2.70;;;;;;;;;;5023428;28;20079;-68
2023/08/26 03:41:39;;;;;;;5.70;2.70;;;;;;;;;;5025494;28;20103;-66
2023/08/26 03:44:09;;;;;;;6.18;2.28;;;;;;;;;;5025226;28;20553;-66
2023/08/26 03:46:37;;;;;;;6.60;2.75;;;;;;;;;;5026366;28;20461;-68
2023/08/26 03:49:05;;;;;;;12.18;3.03;;;;;;;;;;5028882;28;20045;-66
2023/08/26 03:51:34;;;;;;;7.53;2.80;;;;;;;;;;5026254;28;20517;-66
2023/08/26 03:54:02;;;;;;;7.97;2.75;;;;;;;;;;5029047;28;20091;-67
2023/08/26 03:56:30;;;;;;;5.85;2.25;;;;;;;;;;5026756;28;20491;-66
2023/08/26 03:58:59;;;;;;;5.93;2.55;;;;;;;;;;5027417;28;20049;-66
2023/08/26 04:01:29;;;;;;;4.20;2.42;;;;;;;;;;5026396;28;20089;-65
2023/08/26 04:03:58;;;;;;;6.32;2.10;;;;;;;;;;5028425;28;20053;-67
2023/08/26 04:06:27;;;;;;;4.28;2.00;;;;;;;;;;5027174;28;20513;-68
2023/08/26 04:08:55;;;;;;;3.38;2.22;;;;;;;;;;5027986;28;20383;-66
2023/08/26 04:11:24;;;;;;;5.03;2.30;;;;;;;;;;5025459;28;20128;-65
2023/08/26 04:13:52;;;;;;;9.50;1.80;;;;;;;;;;5022172;28;20311;-67
2023/08/26 04:16:21;;;;;;;6.20;2.17;;;;;;;;;;5025095;28;20045;-67
2023/08/26 04:18:52;;;;;;;5.50;2.25;;;;;;;;;;5028916;28;20225;-67
2023/08/26 04:21:20;;;;;;;4.10;1.73;;;;;;;;;;5026030;28;20547;-67
2023/08/26 04:23:49;;;;;;;5.13;1.75;;;;;;;;;;5028746;28;20088;-67
2023/08/26 04:26:17;;;;;;;4.93;1.88;;;;;;;;;;5025807;28;20541;-68
2023/08/26 04:28:46;;;;;;;4.00;1.77;;;;;;;;;;5028176;28;20349;-66
2023/08/26 04:31:14;;;;;;;3.38;1.67;;;;;;;;;;5025335;28;20099;-66
2023/08/26 04:33:43;;;;;;;2.10;1.58;;;;;;;;;;5029275;28;20056;-67
2023/08/26 04:36:13;;;;;;;5.90;1.77;;;;;;;;;;5024912;28;20099;-67
2023/08/26 04:38:41;;;;;;;3.08;1.73;;;;;;;;;;5028507;28;20050;-69
2023/08/26 04:41:10;;;;;;;9.35;1.95;;;;;;;;;;5024477;28;20107;-68
2023/08/26 04:43:40;;;;;;;3.40;2.25;;;;;;;;;;5028692;28;20049;-67
2023/08/26 04:46:09;;;;;;;5.70;1.88;;;;;;;;;;5025812;28;20049;-67
2023/08/26 04:48:37;;;;;;;8.10;2.30;;;;;;;;;;5016000;28;20493;-67
2023/08/26 04:51:06;;;;;;;4.40;1.50;;;;;;;;;;5015763;28;20065;-67
2023/08/26 04:53:35;;;;;;;3.05;1.83;;;;;;;;;;5028346;28;20231;-67
2023/08/26 04:56:04;;;;;;;5.22;1.95;;;;;;;;;;5024360;28;20076;-66
2023/08/26 04:58:32;;;;;;;3.50;2.05;;;;;;;;;;5015242;28;20046;-66
2023/08/26 05:01:00;;;;;;;5.50;1.83;;;;;;;;;;5024053;28;20115;-69
2023/08/26 05:03:29;;;;;;;5.70;1.73;;;;;;;;;;5022845;28;20562;-71
2023/08/26 05:05:57;;;;;;;4.30;1.92;;;;;;;;;;5028795;28;20045;-68
2023/08/26 05:08:26;;;;;;;3.15;1.80;;;;;;;;;;5038446;28;20042;-67
2023/08/26 05:10:55;;;;;;;4.35;1.80;;;;;;;;;;5022510;28;20053;-67
2023/08/26 05:13:24;;;;;;;5.35;1.80;;;;;;;;;;5029429;28;20042;-67
2023/08/26 05:15:52;;;;;;;4.20;2.05;;;;;;;;;;5027785;28;20041;-66
2023/08/26 05:18:21;;;;;;;3.90;2.38;;;;;;;;;;5030541;28;20104;-66
2023/08/26 05:20:49;;;;;;;3.90;2.22;;;;;;;;;;5029668;28;20049;-67
2023/08/26 05:23:18;;;;;;;5.43;1.92;;;;;;;;;;5036044;28;20045;-67
2023/08/26 05:25:46;;;;;;;3.50;1.60;;;;;;;;;;5024448;28;20081;-67
2023/08/26 05:28:16;;;;;;;5.65;1.80;;;;;;;;;;5028483;28;20073;-67
2023/08/26 05:30:45;;;;;;;5.38;2.03;;;;;;;;;;5022451;28;20108;-67
2023/08/26 05:33:13;;;;;;;2.80;1.75;;;;;;;;;;5023044;28;20041;-66
2023/08/26 05:35:42;;;;;;;7.38;2.20;;;;;;;;;;5032963;28;20046;-67
2023/08/26 05:38:10;;;;;;;4.65;2.08;;;;;;;;;;5022401;28;20049;-69
2023/08/26 05:40:38;;;;;;;3.33;1.88;;;;;;;;;;5020518;28;20045;-67
2023/08/26 05:43:07;;;;;;;6.18;1.83;;;;;;;;;;5031960;28;20453;-68
2023/08/26 05:45:38;;;;;;;6.03;2.25;;;;;;;;;;5023374;28;20056;-66
2023/08/26 05:48:06;;;;;;;3.85;2.25;;;;;;;;;;5030268;28;20122;-69
2023/08/26 05:50:35;;;;;;;5.55;2.08;;;;;;;;;;5028783;28;20072;-69
2023/08/26 05:53:03;;;;;;;3.90;2.20;;;;;;;;;;5035765;28;20049;-67
2023/08/26 05:55:34;;;;;;;3.42;2.10;;;;;;;;;;5027165;28;20049;-68
2023/08/26 05:58:03;;;;;;;5.78;1.48;;;;;;;;;;5026981;28;20502;-66
2023/08/26 06:00:31;;;;;;;7.20;2.03;;;;;;;;;;5031242;28;20073;-67
2023/08/26 06:03:01;;;;;;;3.28;2.20;;;;;;;;;;5027331;28;20128;-69
2023/08/26 06:05:29;;;;;;;5.88;2.10;;;;;;;;;;5031928;28;20052;-67
2023/08/26 06:07:57;;;;;;;6.18;2.25;;;;;;;;;;5027523;28;20276;-71
2023/08/26 06:10:26;;;;;;;2.92;1.88;;;;;;;;;;5025590;28;20076;-69
2023/08/26 06:12:55;;;;;;;7.15;1.90;;;;;;;;;;5030006;28;20049;-70
2023/08/26 06:15:23;;;;;;;4.93;2.25;;;;;;;;;;5019967;28;20046;-70
2023/08/26 06:17:52;;;;;;;7.95;2.10;;;;;;;;;;5025551;28;20286;-68
2023/08/26 06:20:22;;;;;;;2.20;1.60;;;;;;;;;;5020938;28;20041;-69
2023/08/26 06:22:50;;;;;;;3.22;2.13;;;;;;;;;;5027366;28;20090;-68
2023/08/26 06:25:20;;;;;;;3.22;1.75;;;;;;;;;;5022507;28;20049;-68
2023/08/26 06:27:48;;;;;;;7.70;1.90;;;;;;;;;;5021568;28;20107;-68
2023/08/26 06:30:16;;;;;;;5.57;1.60;;;;;;;;;;5022881;28;20479;-69
2023/08/26 06:32:45;;;;;;;4.57;1.95;;;;;;;;;;5023144;28;20113;-69
2023/08/26 06:35:14;;;;;;;3.05;1.90;;;;;;;;;;5017712;28;20052;-67
2023/08/26 06:37:44;;;;;;;3.72;1.95;;;;;;;;;;5023376;28;20053;-69
2023/08/26 06:40:12;;;;;;;3.65;1.80;;;;;;;;;;5021007;28;20073;-67
2023/08/26 06:42:41;;;;;;;3.67;1.70;;;;;;;;;;5018364;28;20132;-70
2023/08/26 06:45:10;;;;;;;5.20;1.48;;;;;;;;;;5022531;28;20560;-68
2023/08/26 06:47:39;;;;;;;1.75;1.30;;;;;;;;;;5026296;28;20449;-70
2023/08/26 06:50:09;;;;;;;2.65;1.65;;;;;;;;;;5023114;28;20057;-67
2023/08/26 06:52:37;;;;;;;2.67;1.42;;;;;;;;;;5027940;28;20050;-70
2023/08/26 06:55:08;;;;;;;3.10;1.70;;;;;;;;;;5025745;28;20553;-69
2023/08/26 06:57:37;;;;;;;3.78;2.15;;;;;;;;;;5024037;28;20123;-67
2023/08/26 07:00:08;;;;;;;4.68;1.83;;;;;;;;;;5026173;28;20115;-71
2023/08/26 07:02:36;;;;;;;5.15;1.98;;;;;;;;;;5019868;28;20057;-69
2023/08/26 07:05:05;;;;;;;3.60;2.20;;;;;;;;;;5027542;28;20049;-68
2023/08/26 07:07:36;;;;;;;4.53;1.90;;;;;;;;;;5025205;28;20158;-69
2023/08/26 07:10:05;;;;;;;2.95;1.85;;;;;;;;;;5030295;28;20045;-68
2023/08/26 07:12:34;;;;;;;4.75;2.17;;;;;;;;;;5026021;28;20145;-68
2023/08/26 07:15:03;;;;;;;2.53;1.63;;;;;;;;;;5029906;28;20410;-68
2023/08/26 07:17:31;;;;;;;3.80;2.28;;;;;;;;;;5027630;28;20044;-68
2023/08/26 07:20:00;;;;;;;3.42;1.90;;;;;;;;;;5028147;28;20132;-69
2023/08/26 07:22:28;;;;;;;2.25;1.65;;;;;;;;;;5027367;28;20450;-68
2023/08/26 07:24:57;;;;;;;4.47;2.03;;;;;;;;;;5028316;28;20516;-69
2023/08/26 07:27:26;;;;;;;4.82;1.85;;;;;;;;;;5025408;28;20516;-68
2023/08/26 07:29:55;;;;;;;3.42;1.52;;;;;;;;;;5026671;28;20056;-68
2023/08/26 07:32:24;;;;;;;3.17;1.67;;;;;;;;;;5021004;28;20111;-69
2023/08/26 07:34:53;;;;;;;5.72;1.85;;;;;;;;;;5027167;28;20050;-68
2023/08/26 07:37:21;;;;;;;5.47;2.30;;;;;;;;;;5025493;28;20050;-68
2023/08/26 07:39:50;;;;;;;4.95;2.40;;;;;;;;;;5029753;28;20081;-68
2023/08/26 07:42:19;;;;;;;4.47;2.30;;;;;;;;;;5021287;28;20052;-68
2023/08/26 07:44:47;;;;;;;6.00;2.13;;;;;;;;;;5020719;28;20050;-68
2023/08/26 07:47:18;;;;;;;5.00;2.45;;;;;;;;;;5023173;28;20072;-69
2023/08/26 07:49:46;;;;;;;6.63;2.95;;;;;;;;;;5018348;28;20049;-68
2023/08/26 07:52:15;;;;;;;4.00;2.50;;;;;;;;;;5024248;28;20038;-65
2023/08/26 07:54:43;;;;;;;5.40;2.90;;;;;;;;;;5023435;28;20061;-67
2023/08/26 07:57:12;;;;;;;3.88;2.42;;;;;;;;;;5026506;28;20593;-68
2023/08/26 07:59:40;;;;;;;3.58;2.40;;;;;;;;;;5028456;28;20486;-68
2023/08/26 08:02:09;;;;;;;8.15;3.28;;;;;;;;;;5023099;28;20437;-67
2023/08/26 08:04:41;;;;;;;5.47;3.25;;;;;;;;;;5029102;28;20561;-67
2023/08/26 08:07:09;;;;;;;5.45;3.47;;;;;;;;;;5025147;28;20107;-67
2023/08/26 08:09:38;;;;;;;7.40;3.50;;;;;;;;;;5022755;28;20111;-67
2023/08/26 08:12:08;;;;;;;6.68;3.30;;;;;;;;;;5028599;28;20060;-68
2023/08/26 08:14:36;;;;;;;6.25;3.47;;;;;;;;;;5022248;28;20052;-67
2023/08/26 08:17:05;;;;;;;7.00;3.55;;;;;;;;;;5027666;28;20056;-66
2023/08/26 08:19:41;;;;;;;5.78;3.08;;;;;;;;;;5022445;28;20144;-66
2023/08/26 08:22:10;;;;;;;5.93;3.03;;;;;;;;;;5019771;28;20060;-68
2023/08/26 08:24:38;;;;;;;4.85;2.85;;;;;;;;;;5026496;28;20087;-69
2023/08/26 08:27:06;;;;;;;4.90;2.80;;;;;;;;;;5020511;28;20591;-67
2023/08/26 08:29:35;;;;;;;4.75;2.80;;;;;;;;;;5021766;28;20100;-68
2023/08/26 08:32:04;;;;;;;6.40;3.55;;;;;;;;;;5023535;28;20081;-66
2023/08/26 08:34:32;;;;;;;5.82;3.00;;;;;;;;;;5024630;28;20103;-68
2023/08/26 08:37:02;;;;;;;6.82;3.80;;;;;;;;;;5025841;28;20345;-67
2023/08/26 08:39:31;;;;;;;7.13;3.60;;;;;;;;;;5023096;28;20549;-66
2023/08/26 08:42:02;;;;;;;6.13;3.13;;;;;;;;;;5021284;28;20053;-67
2023/08/26 08:44:33;;;;;;;10.48;3.00;;;;;;;;;;5021917;28;20056;-67
2023/08/26 08:47:03;;;;;;;6.57;3.83;;;;;;;;;;5022814;28;20247;-66
2023/08/26 08:49:31;;;;;;;6.43;3.03;;;;;;;;;;5025802;28;20049;-66
2023/08/26 08:52:02;;;;;;;5.07;3.00;;;;;;;;;;5027544;28;20135;-66
2023/08/26 08:54:31;;;;;;;6.50;3.60;;;;;;;;;;5022925;28;20711;-67
2023/08/26 08:57:00;;;;;;;7.38;3.33;;;;;;;;;;5017887;28;20152;-68
2023/08/26 08:59:28;;;;;;;6.78;3.20;;;;;;;;;;5022903;28;20103;-67
2023/08/26 09:01:57;;;;;;;5.07;3.17;;;;;;;;;;5023494;28;20469;-68
2023/08/26 09:04:26;;;;;;;4.03;2.78;;;;;;;;;;5024225;28;20049;-67
2023/08/26 09:06:54;;;;;;;5.78;2.97;;;;;;;;;;5026205;28;20542;-70
2023/08/26 09:09:24;;;;;;;7.00;3.38;;;;;;;;;;5024437;28;20049;-69
2023/08/26 09:12:06;;;;;;;5.63;3.25;;;;;;;;;;5020256;28;20049;-67
2023/08/26 09:14:34;;;;;;;6.45;3.15;;;;;;;;;;5020705;28;20069;-68
2023/08/26 09:17:16;;;;;;;4.97;3.08;;;;;;;;;;5025075;28;20050;-69
2023/08/26 09:19:54;;;;;;;5.03;3.30;;;;;;;;;;5022470;28;20054;-68
2023/08/26 09:22:25;;;;;;;6.57;3.22;;;;;;;;;;5026575;28;20057;-68
2023/08/26 09:24:58;;;;;;;8.65;3.20;;;;;;;;;;5021074;28;20687;-69
2023/08/26 09:27:26;;;;;;;6.60;3.08;;;;;;;;;;5027583;28;20291;-68
2023/08/26 09:29:55;;;;;;;6.05;3.63;;;;;;;;;;5035535;28;20103;-69
2023/08/26 09:32:34;;;;;;;4.82;2.90;;;;;;;;;;5024294;28;20089;-70
2023/08/26 09:35:10;;;;;;;5.45;3.30;;;;;;;;;;5023897;28;20513;-69
2023/08/26 09:37:38;;;;;;;4.53;2.88;;;;;;;;;;5028042;28;20045;-67
2023/08/26 09:40:09;;;;;;;4.57;2.65;;;;;;;;;;5022360;28;20049;-68
2023/08/26 09:42:37;;;;;;;5.80;3.38;;;;;;;;;;5028767;28;20049;-68
2023/08/26 09:45:08;;;;;;;8.07;3.10;;;;;;;;;;5027539;28;20128;-71
2023/08/26 09:47:37;;;;;;;7.55;3.33;;;;;;;;;;5014347;28;20053;-66
2023/08/26 09:50:06;;;;;;;8.95;3.42;;;;;;;;;;5025748;28;20057;-65
2023/08/26 09:52:44;;;;;;;3.83;2.92;;;;;;;;;;5023625;28;20128;-66
2023/08/26 09:55:14;;;;;;;8.35;3.83;;;;;;;;;;5028081;28;20138;-67
2023/08/26 09:57:43;;;;;;;5.88;3.22;;;;;;;;;;5027630;28;20068;-66
2023/08/26 10:00:12;;;;;;;8.32;3.20;;;;;;;;;;5023889;28;20053;-67
2023/08/26 10:02:52;;;;;;;4.30;2.97;;;;;;;;;;5021822;28;20061;-67
2023/08/26 10:05:22;;;;;;;5.15;3.17;;;;;;;;;;5025678;28;20049;-66
2023/08/26 10:07:51;;;;;;;5.95;3.03;;;;;;;;;;5024650;28;20058;-66
2023/08/26 10:10:24;;;;;;;6.22;3.17;;;;;;;;;;5025207;28;20057;-67
2023/08/26 10:12:54;;;;;;;5.90;3.05;;;;;;;;;;5027710;28;20049;-67
2023/08/26 10:15:22;;;;;;;6.93;3.25;;;;;;;;;;5025912;28;20065;-66
2023/08/26 10:17:51;;;;;;;6.80;2.90;;;;;;;;;;5027375;28;20091;-65
2023/08/26 10:20:20;;;;;;;6.85;3.17;;;;;;;;;;5029461;28;20095;-65
2023/08/26 10:22:48;;;;;;;7.30;3.17;;;;;;;;;;5026148;28;20115;-66
2023/08/26 10:25:17;;;;;;;5.20;3.13;;;;;;;;;;5026675;28;20476;-67
2023/08/26 10:27:47;;;;;;;7.57;3.45;;;;;;;;;;5025005;28;20053;-66
2023/08/26 10:30:17;;;;;;;6.07;3.05;;;;;;;;;;5021385;28;20520;-66
2023/08/26 10:32:46;;;;;;;6.82;3.15;;;;;;;;;;5024313;28;20539;-67
2023/08/26 10:35:15;;;;;;;7.03;2.83;;;;;;;;;;5022943;28;20053;-67
2023/08/26 10:37:43;;;;;;;4.72;2.67;;;;;;;;;;5023076;28;20311;-66
2023/08/26 10:40:12;;;;;;;6.05;2.88;;;;;;;;;;5024351;28;20458;-66
2023/08/26 10:43:01;;;;;;;6.35;3.13;;;;;;;;;;5025072;28;20498;-66
2023/08/26 10:45:31;;;;;;;7.13;2.63;;;;;;;;;;5025190;28;20049;-67
2023/08/26 10:48:00;;;;;;;5.60;3.75;;;;;;;;;;5017813;28;20809;-66
2023/08/26 10:50:29;;;;;;;3.63;2.63;;;;;;;;;;5024894;28;20053;-64
2023/08/26 10:52:59;;;;;;;5.30;2.95;;;;;;;;;;5024930;28;20429;-66
2023/08/26 10:55:28;;;;;;;5.82;2.50;;;;;;;;;;5022779;28;20049;-66
2023/08/26 10:58:18;;;;;;;5.18;2.67;;;;;;;;;;5024994;28;20053;-65
2023/08/26 11:00:48;;;;;;;5.55;2.67;;;;;;;;;;5013476;28;20056;-66
2023/08/26 11:03:18;;;;;;;8.05;3.20;;;;;;;;;;5021604;28;20115;-66
2023/08/26 11:05:47;;;;;;;4.25;2.90;;;;;;;;;;5022679;28;20072;-67
2023/08/26 11:08:15;;;;;;;4.03;2.67;;;;;;;;;;5021899;28;20132;-66
2023/08/26 11:10:44;;;;;;;5.60;3.17;;;;;;;;;;5021996;28;20160;-69
2023/08/26 11:13:13;;;;;;;5.35;2.55;;;;;;;;;;5019152;28;20136;-66
2023/08/26 11:15:42;;;;;;;4.03;2.50;;;;;;;;;;5021301;28;20502;-66
2023/08/26 11:18:12;;;;;;;6.20;2.90;;;;;;;;;;5016401;28;20076;-65
2023/08/26 11:20:41;;;;;;;11.27;3.08;;;;;;;;;;5018744;28;20443;-66
2023/08/26 11:23:09;;;;;;;4.13;2.47;;;;;;;;;;5024085;28;20099;-66
2023/08/26 11:25:38;;;;;;;3.95;2.55;;;;;;;;;;5022179;28;20132;-65
2023/08/26 11:28:08;;;;;;;6.13;2.70;;;;;;;;;;5020056;28;20053;-66
2023/08/26 11:30:41;;;;;;;5.97;2.80;;;;;;;;;;5020781;28;20073;-65
2023/08/26 11:33:11;;;;;;;5.00;2.38;;;;;;;;;;5023872;28;20045;-65
2023/08/26 11:35:40;;;;;;;5.90;3.05;;;;;;;;;;5020654;28;20046;-65
2023/08/26 11:38:12;;;;;;;10.43;2.88;;;;;;;;;;5026496;28;20046;-65
2023/08/26 11:40:41;;;;;;;7.18;2.55;;;;;;;;;;5022148;28;20052;-65
2023/08/26 11:43:10;;;;;;;5.40;2.40;;;;;;;;;;5023853;28;20050;-69
2023/08/26 11:45:39;;;;;;;4.75;2.50;;;;;;;;;;5022201;28;20416;-65
2023/08/26 11:48:10;;;;;;;7.35;2.40;;;;;;;;;;5023416;28;20069;-65
2023/08/26 11:50:41;;;;;;;5.10;2.40;;;;;;;;;;5021858;28;20049;-66
2023/08/26 11:53:09;;;;;;;4.78;2.30;;;;;;;;;;5024628;28;20072;-68
2023/08/26 11:55:38;;;;;;;3.58;2.40;;;;;;;;;;5024527;28;20064;-68
2023/08/26 11:58:07;;;;;;;4.63;2.17;;;;;;;;;;5025848;28;20285;-68
2023/08/26 12:00:38;;;;;;;7.55;2.83;;;;;;;;;;5019198;28;20050;-67
2023/08/26 12:03:06;;;;;;;6.20;3.35;;;;;;;;;;5021668;28;20049;-67
2023/08/26 12:05:43;;;;;;;4.35;2.67;;;;;;;;;;5020624;28;20081;-67
2023/08/26 12:08:15;;;;;;;6.57;2.90;;;;;;;;;;5020667;28;20496;-67
2023/08/26 12:10:47;;;;;;;4.15;2.55;;;;;;;;;;5017048;28;20518;-66
2023/08/26 12:13:15;;;;;;;3.65;2.63;;;;;;;;;;5022559;28;20041;-67
2023/08/26 12:15:44;;;;;;;4.15;2.65;;;;;;;;;;5021255;28;20123;-66
2023/08/26 12:18:13;;;;;;;3.80;2.50;;;;;;;;;;5023562;28;20123;-67
2023/08/26 12:20:44;;;;;;;4.50;2.13;;;;;;;;;;5022167;28;20124;-66
2023/08/26 12:23:13;;;;;;;5.97;2.53;;;;;;;;;;5021735;28;20057;-66
2023/08/26 12:25:42;;;;;;;4.65;2.40;;;;;;;;;;5020542;28;20059;-66
2023/08/26 12:28:12;;;;;;;6.50;2.90;;;;;;;;;;5020864;28;20053;-67
2023/08/26 12:30:41;;;;;;;3.47;2.50;;;;;;;;;;5021440;28;20060;-66
2023/08/26 12:33:10;;;;;;;3.50;2.42;;;;;;;;;;5017941;28;20052;-67
2023/08/26 12:35:52;;;;;;;4.15;2.60;;;;;;;;;;5019718;28;20502;-67
2023/08/26 12:38:21;;;;;;;4.38;2.47;;;;;;;;;;5022182;28;20058;-67
2023/08/26 12:40:50;;;;;;;7.75;3.13;;;;;;;;;;5020070;28;20062;-68
2023/08/26 12:43:19;;;;;;;3.63;2.78;;;;;;;;;;5017138;28;20049;-67
2023/08/26 12:45:49;;;;;;;3.72;2.80;;;;;;;;;;5026809;28;20116;-67
2023/08/26 12:48:18;;;;;;;3.28;2.30;;;;;;;;;;5025800;28;20038;-67
2023/08/26 12:51:08;;;;;;;5.28;2.70;;;;;;;;;;5023376;28;20486;-66
2023/08/26 12:53:38;;;;;;;4.05;2.45;;;;;;;;;;5023547;28;20042;-65
2023/08/26 12:56:07;;;;;;;4.20;2.47;;;;;;;;;;5026073;28;20553;-67
2023/08/26 12:58:35;;;;;;;7.20;2.33;;;;;;;;;;5027282;28;20053;-67
2023/08/26 13:01:04;;;;;;;6.07;2.72;;;;;;;;;;5019713;28;20123;-65
2023/08/26 13:03:32;;;;;;;3.38;2.28;;;;;;;;;;5024418;28;20053;-66
2023/08/26 13:06:01;;;;;;;3.53;2.60;;;;;;;;;;5025262;28;20049;-68
2023/08/26 13:08:30;;;;;;;3.80;2.28;;;;;;;;;;5023353;28;20146;-67
2023/08/26 13:11:00;;;;;;;3.38;2.22;;;;;;;;;;5026359;28;20100;-67
2023/08/26 13:13:29;;;;;;;5.07;2.05;;;;;;;;;;5020900;28;20486;-67
2023/08/26 13:15:57;;;;;;;5.90;2.78;;;;;;;;;;5017358;28;20115;-69
2023/08/26 13:18:26;;;;;;;4.18;2.80;;;;;;;;;;5024031;28;20050;-67
2023/08/26 13:20:54;;;;;;;3.92;2.38;;;;;;;;;;5019007;28;20624;-67
2023/08/26 13:23:22;;;;;;;6.30;2.45;;;;;;;;;;5018789;28;20068;-67
2023/08/26 13:25:52;;;;;;;5.18;2.53;;;;;;;;;;5025680;28;20506;-67
2023/08/26 13:28:21;;;;;;;3.40;2.17;;;;;;;;;;5022713;28;20052;-68
2023/08/26 13:30:49;;;;;;;3.92;2.30;;;;;;;;;;5023366;28;20273;-69
2023/08/26 13:33:18;;;;;;;5.13;2.40;;;;;;;;;;5021925;28;20530;-67
2023/08/26 13:35:46;;;;;;;4.25;2.33;;;;;;;;;;5021279;28;20053;-68
2023/08/26 13:38:14;;;;;;;3.78;2.65;;;;;;;;;;5022469;28;20478;-67
2023/08/26 13:40:43;;;;;;;7.78;2.88;;;;;;;;;;5018687;28;20441;-69
2023/08/26 13:43:12;;;;;;;4.97;2.17;;;;;;;;;;5019681;28;20045;-67
2023/08/26 13:45:41;;;;;;;4.30;2.67;;;;;;;;;;5024822;28;20050;-68
2023/08/26 13:48:09;;;;;;;3.45;2.50;;;;;;;;;;5022008;28;20053;-68
2023/08/26 13:50:38;;;;;;;4.22;2.80;;;;;;;;;;5022255;28;20069;-67
2023/08/26 13:53:06;;;;;;;5.57;2.70;;;;;;;;;;5022681;28;20132;-67
2023/08/26 13:55:35;;;;;;;8.20;3.05;;;;;;;;;;5024391;28;20542;-68
2023/08/26 13:58:03;;;;;;;4.50;2.47;;;;;;;;;;5020157;28;20049;-68
2023/08/26 14:00:33;;;;;;;4.13;2.85;;;;;;;;;;5022728;28;20073;-66
2023/08/26 14:03:02;;;;;;;3.42;2.53;;;;;;;;;;5022526;28;20054;-67
2023/08/26 14:05:31;;;;;;;5.13;2.53;;;;;;;;;;5025902;28;20085;-67
2023/08/26 14:07:59;;;;;;;4.60;2.70;;;;;;;;;;5025213;28;20087;-67
2023/08/26 14:10:28;;;;;;;5.45;2.50;;;;;;;;;;5024686;28;20072;-67
2023/08/26 14:12:57;;;;;;;4.68;2.80;;;;;;;;;;5025415;28;20123;-67
2023/08/26 14:15:25;;;;;;;3.90;3.05;;;;;;;;;;5027214;28;20509;-67
2023/08/26 14:17:55;;;;;;;4.35;2.72;;;;;;;;;;5029850;28;20128;-67
2023/08/26 14:20:24;;;;;;;8.15;3.05;;;;;;;;;;5029053;28;20494;-67
2023/08/26 14:22:52;;;;;;;4.75;2.80;;;;;;;;;;5026301;28;20341;-67
2023/08/26 14:25:21;;;;;;;6.97;3.25;;;;;;;;;;5026779;28;20049;-68
2023/08/26 14:27:49;;;;;;;9.68;3.33;;;;;;;;;;5027837;28;20080;-67
2023/08/26 14:30:17;;;;;;;6.90;3.20;;;;;;;;;;5026936;28;20111;-67
2023/08/26 14:32:49;;;;;;;6.30;2.83;;;;;;;;;;5027934;28;20045;-67
2023/08/26 14:35:19;;;;;;;4.15;2.08;;;;;;;;;;5020117;28;20096;-68
2023/08/26 14:37:47;;;;;;;3.83;1.27;;;;;;;;;;5029372;28;20045;-66
2023/08/26 14:40:16;;;;;;;3.80;0.68;;;;;;;;;;5023260;28;20046;-65
2023/08/26 14:42:46;;;;;;;2.55;0.70;;;;;;;;;;5017237;28;20519;-66
2023/08/26 14:45:15;;;;;;;4.15;0.50;;;;;;;;;;5020811;28;20512;-65
2023/08/26 14:47:45;;;;;;;1.80;0.57;;;;;;;;;;5021436;28;20061;-66
2023/08/26 14:50:14;;;;;;;3.28;0.63;;;;;;;;;;5026210;28;20049;-66
2023/08/26 14:52:44;;;;;;;3.28;0.73;;;;;;;;;;5018512;28;20048;-65
2023/08/26 14:55:12;;;;;;;1.70;1.00;;;;;;;;;;5020508;28;20050;-65